Skip Navigation Links Skip Navigation Links

Current Weather

Livingston County, Howell, Mich.

For information only: do not use for flight planning or navigation.
Latest weather
Observation time Thursday, October 17, 2019 1:36 AM EDT
Local time Thursday, October 17, 2019 1:52 AM EDT
Flight conditions Marginal Visual Meteorological Conditions
Winds
Wind direction West-Northwest (300°)
Wind speed 17 mph
Wind gusting to 25 mph
Visibility 10 mi.
Sky condition
Ceiling 2,500 ft. broken clouds
Cloud layer broken clouds 2,500 ft.
Cloud layer overcast 3,200 ft.
Temperature 45°F
Dewpoint 37°F
Altimeter 29.82 in.Hg
Derived measurements
Relative humidity 75%
Wind chill 38°F
Density altitude 251 ft.
Remarks
Fully automated report.
Automated weather observing station with precipitation discriminator.
METAR KOZW 170536Z AUTO 30015G22KT 10SM BKN025 OVC032 07/03 A2982 RMK AO2 T00720030

Settings

Location code

InnerDrive.Weather 4.0.6770.0 Release CLR 4.0.30319.42000
Copyright ©2018 Inner Drive Technology. All rights reserved. Portions Copyright ©1986-2018 David Braverman.

Find weather

Site navigation


Skip Navigation Links

Place info

Page info

PayPal - The safer, easier way to pay online!

Return home.

Copyright ©2019 Inner Drive Technology. Purveyors of fine, hand-crafted computer software. Page printed 2019-10-17T05:52:04 UTC.